KOLV/OLV METAR and TAF weather

Enter ICAO airport designator
Station Type Date Time Source
KOLV METAR 2020/09/19 23:50 UTC NOAA

KOLV 192350Z 08007KT 10SM SCT044 20/15 A3014


Station Type Date Time Source
KOLV Decoded METAR 2020/09/19 23:50 UTC NOAA

Olive Branch, Olive Branch Airport, MS, United States (KOLV) 34-58-44N 089-47-13W
Sep 19, 2020 - 07:50 PM EDT / 2020.09.19 2350 UTC
Wind: from the E (080 degrees) at 8 MPH (7 KT):0
Visibility: 10 mile(s):0
Sky conditions: partly cloudy
Temperature: 68 F (20 C)
Dew Point: 59 F (15 C)
Relative Humidity: 72%
Pressure (altimeter): 30.14 in. Hg (1020 hPa)
ob: KOLV 192350Z 08007KT 10SM SCT044 20/15 A3014
cycle: 0

Station Type Date Time Source
KOLV TAF UTC NOAA

Error!

Example: see airport list